sensor_id;sensor_type;location;lat;lon;timestamp;temperature;humidity
65462;DHT22;53236;43.666;18.444;2023-07-29T00:01:43;13.70;99.90
65462;DHT22;53236;43.666;18.444;2023-07-29T00:04:09;13.70;99.90
65462;DHT22;53236;43.666;18.444;2023-07-29T00:06:36;13.70;99.90
65462;DHT22;53236;43.666;18.444;2023-07-29T00:09:02;13.60;99.90
65462;DHT22;53236;43.666;18.444;2023-07-29T00:11:28;13.50;99.90
65462;DHT22;53236;43.666;18.444;2023-07-29T00:13:54;13.50;99.90
65462;DHT22;53236;43.666;18.444;2023-07-29T00:16:20;13.50;99.90
65462;DHT22;53236;43.666;18.444;2023-07-29T00:18:49;13.50;99.90
65462;DHT22;53236;43.666;18.444;2023-07-29T00:21:15;13.50;99.90
65462;DHT22;53236;43.666;18.444;2023-07-29T00:23:40;13.50;99.90
65462;DHT22;53236;43.666;18.444;2023-07-29T00:26:06;13.40;99.90
65462;DHT22;53236;43.666;18.444;2023-07-29T00:28:32;13.30;99.90
65462;DHT22;53236;43.666;18.444;2023-07-29T00:30:58;13.30;99.90
65462;DHT22;53236;43.666;18.444;2023-07-29T00:33:23;13.20;99.90
65462;DHT22;53236;43.666;18.444;2023-07-29T00:35:49;13.20;99.90
65462;DHT22;53236;43.666;18.444;2023-07-29T00:38:15;13.10;99.90
65462;DHT22;53236;43.666;18.444;2023-07-29T00:40:41;13.10;99.90
65462;DHT22;53236;43.666;18.444;2023-07-29T00:43:07;13.10;99.90
65462;DHT22;53236;43.666;18.444;2023-07-29T00:45:33;13.10;99.90
65462;DHT22;53236;43.666;18.444;2023-07-29T00:48:00;13.10;99.90
65462;DHT22;53236;43.666;18.444;2023-07-29T00:50:26;13.00;99.90
65462;DHT22;53236;43.666;18.444;2023-07-29T00:52:54;12.90;99.90
65462;DHT22;53236;43.666;18.444;2023-07-29T00:55:20;12.90;99.90
65462;DHT22;53236;43.666;18.444;2023-07-29T00:57:46;12.90;99.90
65462;DHT22;53236;43.666;18.444;2023-07-29T01:00:15;12.90;99.90
65462;DHT22;53236;43.666;18.444;2023-07-29T01:02:42;12.80;99.90
65462;DHT22;53236;43.666;18.444;2023-07-29T01:05:08;12.80;99.90
65462;DHT22;53236;43.666;18.444;2023-07-29T01:15:43;12.60;99.90
65462;DHT22;53236;43.666;18.444;2023-07-29T01:18:37;12.60;99.90
65462;DHT22;53236;43.666;18.444;2023-07-29T01:21:05;12.50;99.90
65462;DHT22;53236;43.666;18.444;2023-07-29T01:23:34;12.50;99.90
65462;DHT22;53236;43.666;18.444;2023-07-29T01:26:00;12.40;99.90
65462;DHT22;53236;43.666;18.444;2023-07-29T01:28:27;12.50;99.90
65462;DHT22;53236;43.666;18.444;2023-07-29T01:31:02;12.40;99.90
65462;DHT22;53236;43.666;18.444;2023-07-29T01:33:34;12.40;99.90
65462;DHT22;53236;43.666;18.444;2023-07-29T01:36:11;12.50;99.90
65462;DHT22;53236;43.666;18.444;2023-07-29T01:38:41;12.50;99.90
65462;DHT22;53236;43.666;18.444;2023-07-29T01:41:08;12.40;99.90
65462;DHT22;53236;43.666;18.444;2023-07-29T01:43:34;12.40;99.90
65462;DHT22;53236;43.666;18.444;2023-07-29T01:46:05;12.40;99.90
65462;DHT22;53236;43.666;18.444;2023-07-29T01:48:31;12.30;99.90
65462;DHT22;53236;43.666;18.444;2023-07-29T01:50:57;12.20;99.90
65462;DHT22;53236;43.666;18.444;2023-07-29T01:53:23;12.20;99.90
65462;DHT22;53236;43.666;18.444;2023-07-29T01:55:49;12.20;99.90
65462;DHT22;53236;43.666;18.444;2023-07-29T01:58:15;12.20;99.90
65462;DHT22;53236;43.666;18.444;2023-07-29T02:00:40;12.20;99.90
65462;DHT22;53236;43.666;18.444;2023-07-29T02:03:06;12.20;99.90
65462;DHT22;53236;43.666;18.444;2023-07-29T02:05:32;12.20;99.90
65462;DHT22;53236;43.666;18.444;2023-07-29T02:07:58;12.20;99.90
65462;DHT22;53236;43.666;18.444;2023-07-29T02:10:23;12.10;99.90
65462;DHT22;53236;43.666;18.444;2023-07-29T02:12:49;12.10;99.90
65462;DHT22;53236;43.666;18.444;2023-07-29T02:15:15;12.10;99.90
65462;DHT22;53236;43.666;18.444;2023-07-29T02:17:42;12.00;99.90
65462;DHT22;53236;43.666;18.444;2023-07-29T02:20:08;12.00;99.90
65462;DHT22;53236;43.666;18.444;2023-07-29T02:22:34;12.00;99.90
65462;DHT22;53236;43.666;18.444;2023-07-29T02:25:00;12.00;99.90
65462;DHT22;53236;43.666;18.444;2023-07-29T02:27:26;12.00;99.90
65462;DHT22;53236;43.666;18.444;2023-07-29T02:29:53;12.00;99.90
65462;DHT22;53236;43.666;18.444;2023-07-29T02:32:20;12.00;99.90
65462;DHT22;53236;43.666;18.444;2023-07-29T02:34:45;11.90;99.90
65462;DHT22;53236;43.666;18.444;2023-07-29T02:37:11;11.90;99.90
65462;DHT22;53236;43.666;18.444;2023-07-29T02:39:37;11.90;99.90
65462;DHT22;53236;43.666;18.444;2023-07-29T02:42:03;11.80;99.90
65462;DHT22;53236;43.666;18.444;2023-07-29T02:44:29;11.80;99.90
65462;DHT22;53236;43.666;18.444;2023-07-29T02:46:55;11.80;99.90
65462;DHT22;53236;43.666;18.444;2023-07-29T02:49:22;11.80;99.90
65462;DHT22;53236;43.666;18.444;2023-07-29T02:51:47;11.70;99.90
65462;DHT22;53236;43.666;18.444;2023-07-29T02:54:13;11.70;99.90
65462;DHT22;53236;43.666;18.444;2023-07-29T02:56:39;11.70;99.90
65462;DHT22;53236;43.666;18.444;2023-07-29T02:59:05;11.70;99.90
65462;DHT22;53236;43.666;18.444;2023-07-29T03:01:31;11.70;99.90
65462;DHT22;53236;43.666;18.444;2023-07-29T03:03:56;11.70;99.90
65462;DHT22;53236;43.666;18.444;2023-07-29T03:06:22;11.70;99.90
65462;DHT22;53236;43.666;18.444;2023-07-29T03:08:48;11.70;99.90
65462;DHT22;53236;43.666;18.444;2023-07-29T03:11:15;11.70;99.90
65462;DHT22;53236;43.666;18.444;2023-07-29T03:13:41;11.60;99.90
65462;DHT22;53236;43.666;18.444;2023-07-29T03:16:08;11.60;99.90
65462;DHT22;53236;43.666;18.444;2023-07-29T03:18:34;11.70;99.90
65462;DHT22;53236;43.666;18.444;2023-07-29T03:21:00;11.70;99.90
65462;DHT22;53236;43.666;18.444;2023-07-29T03:23:27;11.70;99.90
65462;DHT22;53236;43.666;18.444;2023-07-29T03:25:55;11.70;99.90
65462;DHT22;53236;43.666;18.444;2023-07-29T03:28:27;11.70;99.90
65462;DHT22;53236;43.666;18.444;2023-07-29T03:30:56;11.70;99.90
65462;DHT22;53236;43.666;18.444;2023-07-29T03:33:22;11.80;99.90
65462;DHT22;53236;43.666;18.444;2023-07-29T03:35:48;11.70;99.90
65462;DHT22;53236;43.666;18.444;2023-07-29T03:38:14;11.70;99.90
65462;DHT22;53236;43.666;18.444;2023-07-29T03:40:40;11.70;99.90
65462;DHT22;53236;43.666;18.444;2023-07-29T03:43:07;11.80;99.90
65462;DHT22;53236;43.666;18.444;2023-07-29T03:45:33;11.80;99.90
65462;DHT22;53236;43.666;18.444;2023-07-29T03:47:59;11.80;99.90
65462;DHT22;53236;43.666;18.444;2023-07-29T03:50:25;11.80;99.90
65462;DHT22;53236;43.666;18.444;2023-07-29T03:52:51;11.80;99.90
65462;DHT22;53236;43.666;18.444;2023-07-29T03:55:17;11.80;99.90
65462;DHT22;53236;43.666;18.444;2023-07-29T03:57:42;11.80;99.90
65462;DHT22;53236;43.666;18.444;2023-07-29T04:00:08;11.80;99.90
65462;DHT22;53236;43.666;18.444;2023-07-29T04:02:34;11.90;99.90
65462;DHT22;53236;43.666;18.444;2023-07-29T04:05:05;11.90;99.90
65462;DHT22;53236;43.666;18.444;2023-07-29T04:07:32;11.80;99.90
65462;DHT22;53236;43.666;18.444;2023-07-29T04:09:58;11.80;99.90
65462;DHT22;53236;43.666;18.444;2023-07-29T04:12:24;11.80;99.90
65462;DHT22;53236;43.666;18.444;2023-07-29T04:14:50;11.80;99.90
65462;DHT22;53236;43.666;18.444;2023-07-29T04:17:16;11.90;99.90
65462;DHT22;53236;43.666;18.444;2023-07-29T04:19:41;11.80;99.90
65462;DHT22;53236;43.666;18.444;2023-07-29T04:22:07;11.80;99.90
65462;DHT22;53236;43.666;18.444;2023-07-29T04:24:33;11.60;99.90
65462;DHT22;53236;43.666;18.444;2023-07-29T04:26:58;11.60;99.90
65462;DHT22;53236;43.666;18.444;2023-07-29T04:29:24;11.40;99.90
65462;DHT22;53236;43.666;18.444;2023-07-29T04:31:50;11.40;99.90
65462;DHT22;53236;43.666;18.444;2023-07-29T04:34:17;11.50;99.90
65462;DHT22;53236;43.666;18.444;2023-07-29T04:36:43;11.60;99.90
65462;DHT22;53236;43.666;18.444;2023-07-29T04:39:09;11.80;99.90
65462;DHT22;53236;43.666;18.444;2023-07-29T04:41:34;12.50;99.90
65462;DHT22;53236;43.666;18.444;2023-07-29T04:44:00;14.00;99.90
65462;DHT22;53236;43.666;18.444;2023-07-29T04:46:26;15.40;99.90
65462;DHT22;53236;43.666;18.444;2023-07-29T04:48:51;17.10;99.90
65462;DHT22;53236;43.666;18.444;2023-07-29T04:51:17;18.60;94.80
65462;DHT22;53236;43.666;18.444;2023-07-29T04:53:43;20.20;85.40
65462;DHT22;53236;43.666;18.444;2023-07-29T04:56:09;21.40;76.70
65462;DHT22;53236;43.666;18.444;2023-07-29T04:58:34;22.40;71.80
65462;DHT22;53236;43.666;18.444;2023-07-29T05:01:01;23.40;67.00
65462;DHT22;53236;43.666;18.444;2023-07-29T05:03:28;24.10;62.90
65462;DHT22;53236;43.666;18.444;2023-07-29T05:05:54;24.10;61.30
65462;DHT22;53236;43.666;18.444;2023-07-29T05:08:21;24.70;60.00
65462;DHT22;53236;43.666;18.444;2023-07-29T05:10:50;24.30;60.00
65462;DHT22;53236;43.666;18.444;2023-07-29T05:13:17;24.80;58.90
65462;DHT22;53236;43.666;18.444;2023-07-29T05:15:43;24.60;58.20
65462;DHT22;53236;43.666;18.444;2023-07-29T05:18:09;25.90;58.70
65462;DHT22;53236;43.666;18.444;2023-07-29T05:20:35;26.80;56.50
65462;DHT22;53236;43.666;18.444;2023-07-29T05:23:00;27.70;55.10
65462;DHT22;53236;43.666;18.444;2023-07-29T05:25:27;28.50;53.20
65462;DHT22;53236;43.666;18.444;2023-07-29T05:27:52;29.50;52.10
65462;DHT22;53236;43.666;18.444;2023-07-29T05:30:18;29.50;50.50
65462;DHT22;53236;43.666;18.444;2023-07-29T05:32:44;29.20;51.20
65462;DHT22;53236;43.666;18.444;2023-07-29T05:35:10;29.00;52.40
65462;DHT22;53236;43.666;18.444;2023-07-29T05:37:39;29.80;51.70
65462;DHT22;53236;43.666;18.444;2023-07-29T05:40:08;30.80;49.80
65462;DHT22;53236;43.666;18.444;2023-07-29T05:42:36;31.40;49.50
65462;DHT22;53236;43.666;18.444;2023-07-29T05:45:02;32.20;47.70
65462;DHT22;53236;43.666;18.444;2023-07-29T05:47:28;32.60;47.60
65462;DHT22;53236;43.666;18.444;2023-07-29T05:49:54;32.30;46.80
65462;DHT22;53236;43.666;18.444;2023-07-29T05:52:20;33.20;47.30
65462;DHT22;53236;43.666;18.444;2023-07-29T05:54:45;34.10;46.00
65462;DHT22;53236;43.666;18.444;2023-07-29T05:57:12;34.80;45.70
65462;DHT22;53236;43.666;18.444;2023-07-29T05:59:38;34.60;44.90
65462;DHT22;53236;43.666;18.444;2023-07-29T06:02:04;33.60;45.70
65462;DHT22;53236;43.666;18.444;2023-07-29T06:04:31;34.30;45.30
65462;DHT22;53236;43.666;18.444;2023-07-29T06:06:57;33.90;45.60
65462;DHT22;53236;43.666;18.444;2023-07-29T06:09:23;34.80;44.70
65462;DHT22;53236;43.666;18.444;2023-07-29T06:11:50;35.70;44.00
65462;DHT22;53236;43.666;18.444;2023-07-29T06:14:16;35.80;44.80
65462;DHT22;53236;43.666;18.444;2023-07-29T06:16:42;36.80;43.70
65462;DHT22;53236;43.666;18.444;2023-07-29T06:19:08;37.60;41.80
65462;DHT22;53236;43.666;18.444;2023-07-29T06:21:35;37.50;42.10
65462;DHT22;53236;43.666;18.444;2023-07-29T06:24:01;37.60;41.40
65462;DHT22;53236;43.666;18.444;2023-07-29T06:26:27;38.20;42.00
65462;DHT22;53236;43.666;18.444;2023-07-29T06:28:53;38.80;41.50
65462;DHT22;53236;43.666;18.444;2023-07-29T06:31:19;38.60;41.40
65462;DHT22;53236;43.666;18.444;2023-07-29T06:33:45;38.80;40.70
65462;DHT22;53236;43.666;18.444;2023-07-29T06:36:11;39.00;40.10
65462;DHT22;53236;43.666;18.444;2023-07-29T06:38:37;39.30;40.20
65462;DHT22;53236;43.666;18.444;2023-07-29T06:41:04;39.90;39.60
65462;DHT22;53236;43.666;18.444;2023-07-29T06:43:30;39.70;40.50
65462;DHT22;53236;43.666;18.444;2023-07-29T06:45:55;39.90;39.10
65462;DHT22;53236;43.666;18.444;2023-07-29T06:48:22;39.60;40.50
65462;DHT22;53236;43.666;18.444;2023-07-29T06:50:49;40.60;40.00
65462;DHT22;53236;43.666;18.444;2023-07-29T06:53:16;40.40;39.10
65462;DHT22;53236;43.666;18.444;2023-07-29T06:55:43;40.40;40.20
65462;DHT22;53236;43.666;18.444;2023-07-29T06:58:10;38.60;39.50
65462;DHT22;53236;43.666;18.444;2023-07-29T07:00:35;37.20;41.30
65462;DHT22;53236;43.666;18.444;2023-07-29T07:03:01;36.50;44.10
65462;DHT22;53236;43.666;18.444;2023-07-29T07:05:27;36.20;44.70
65462;DHT22;53236;43.666;18.444;2023-07-29T07:07:53;36.50;43.80
65462;DHT22;53236;43.666;18.444;2023-07-29T07:10:19;37.40;43.40
65462;DHT22;53236;43.666;18.444;2023-07-29T07:12:44;37.40;43.00
65462;DHT22;53236;43.666;18.444;2023-07-29T07:15:10;38.70;42.00
65462;DHT22;53236;43.666;18.444;2023-07-29T07:17:36;40.20;40.60
65462;DHT22;53236;43.666;18.444;2023-07-29T07:20:02;41.40;41.00
65462;DHT22;53236;43.666;18.444;2023-07-29T07:22:28;42.20;39.80
65462;DHT22;53236;43.666;18.444;2023-07-29T07:24:54;42.40;38.80
65462;DHT22;53236;43.666;18.444;2023-07-29T07:27:20;42.30;38.30
65462;DHT22;53236;43.666;18.444;2023-07-29T07:29:45;42.50;39.00
65462;DHT22;53236;43.666;18.444;2023-07-29T07:32:11;43.60;38.50
65462;DHT22;53236;43.666;18.444;2023-07-29T07:34:37;42.30;38.60
65462;DHT22;53236;43.666;18.444;2023-07-29T07:37:02;43.20;37.90
65462;DHT22;53236;43.666;18.444;2023-07-29T07:39:30;43.20;38.40
65462;DHT22;53236;43.666;18.444;2023-07-29T07:41:55;43.70;38.70
65462;DHT22;53236;43.666;18.444;2023-07-29T07:44:21;44.10;38.00
65462;DHT22;53236;43.666;18.444;2023-07-29T07:46:47;45.00;37.40
65462;DHT22;53236;43.666;18.444;2023-07-29T07:49:12;44.00;38.00
65462;DHT22;53236;43.666;18.444;2023-07-29T07:51:39;42.60;37.70
65462;DHT22;53236;43.666;18.444;2023-07-29T07:54:04;43.20;38.40
65462;DHT22;53236;43.666;18.444;2023-07-29T07:56:30;44.30;37.50
65462;DHT22;53236;43.666;18.444;2023-07-29T07:58:56;44.10;36.70
65462;DHT22;53236;43.666;18.444;2023-07-29T08:01:22;44.30;36.00
65462;DHT22;53236;43.666;18.444;2023-07-29T08:03:47;44.50;36.90
65462;DHT22;53236;43.666;18.444;2023-07-29T08:06:13;43.70;36.60
65462;DHT22;53236;43.666;18.444;2023-07-29T08:08:39;43.80;35.30
65462;DHT22;53236;43.666;18.444;2023-07-29T08:11:05;41.50;36.40
65462;DHT22;53236;43.666;18.444;2023-07-29T08:13:30;39.50;38.80
65462;DHT22;53236;43.666;18.444;2023-07-29T08:15:56;38.60;39.60
65462;DHT22;53236;43.666;18.444;2023-07-29T08:18:22;39.70;39.70
65462;DHT22;53236;43.666;18.444;2023-07-29T08:20:55;40.30;40.80
65462;DHT22;53236;43.666;18.444;2023-07-29T08:23:24;41.10;39.10
65462;DHT22;53236;43.666;18.444;2023-07-29T08:25:53;40.60;38.60
65462;DHT22;53236;43.666;18.444;2023-07-29T08:28:18;39.60;38.50
65462;DHT22;53236;43.666;18.444;2023-07-29T08:30:45;38.40;40.50
65462;DHT22;53236;43.666;18.444;2023-07-29T08:33:10;37.90;40.80
65462;DHT22;53236;43.666;18.444;2023-07-29T08:35:36;37.10;43.20
65462;DHT22;53236;43.666;18.444;2023-07-29T08:38:02;36.60;41.70
65462;DHT22;53236;43.666;18.444;2023-07-29T08:40:32;36.90;42.50
65462;DHT22;53236;43.666;18.444;2023-07-29T08:43:03;36.40;42.00
65462;DHT22;53236;43.666;18.444;2023-07-29T08:45:33;36.20;43.10
65462;DHT22;53236;43.666;18.444;2023-07-29T08:48:00;35.80;44.70
65462;DHT22;53236;43.666;18.444;2023-07-29T08:50:28;35.40;44.50
65462;DHT22;53236;43.666;18.444;2023-07-29T08:52:55;34.70;44.50
65462;DHT22;53236;43.666;18.444;2023-07-29T08:55:21;34.20;43.40
65462;DHT22;53236;43.666;18.444;2023-07-29T08:57:47;33.10;45.00
65462;DHT22;53236;43.666;18.444;2023-07-29T09:00:13;33.10;45.40
65462;DHT22;53236;43.666;18.444;2023-07-29T09:02:39;32.70;46.10
65462;DHT22;53236;43.666;18.444;2023-07-29T09:05:05;32.40;46.60
65462;DHT22;53236;43.666;18.444;2023-07-29T09:07:33;31.70;47.50
65462;DHT22;53236;43.666;18.444;2023-07-29T09:09:59;31.40;49.60
65462;DHT22;53236;43.666;18.444;2023-07-29T09:12:25;31.30;48.70
65462;DHT22;53236;43.666;18.444;2023-07-29T09:14:53;31.60;49.20
65462;DHT22;53236;43.666;18.444;2023-07-29T09:17:22;31.50;48.80
65462;DHT22;53236;43.666;18.444;2023-07-29T09:19:51;31.60;50.40
65462;DHT22;53236;43.666;18.444;2023-07-29T09:22:18;31.50;49.80
65462;DHT22;53236;43.666;18.444;2023-07-29T09:24:45;31.60;50.40
65462;DHT22;53236;43.666;18.444;2023-07-29T09:27:24;31.30;49.60
65462;DHT22;53236;43.666;18.444;2023-07-29T09:29:50;31.10;51.80
65462;DHT22;53236;43.666;18.444;2023-07-29T09:32:23;31.50;50.40
65462;DHT22;53236;43.666;18.444;2023-07-29T09:34:49;31.20;48.90
65462;DHT22;53236;43.666;18.444;2023-07-29T09:37:21;30.70;48.80
65462;DHT22;53236;43.666;18.444;2023-07-29T09:39:49;30.50;52.50
65462;DHT22;53236;43.666;18.444;2023-07-29T09:42:19;30.60;50.80
65462;DHT22;53236;43.666;18.444;2023-07-29T09:44:45;30.70;49.20
65462;DHT22;53236;43.666;18.444;2023-07-29T09:47:22;30.60;52.30
65462;DHT22;53236;43.666;18.444;2023-07-29T09:49:48;30.70;49.80
65462;DHT22;53236;43.666;18.444;2023-07-29T09:52:20;30.60;52.70
65462;DHT22;53236;43.666;18.444;2023-07-29T09:54:47;30.40;50.80
65462;DHT22;53236;43.666;18.444;2023-07-29T09:57:18;30.50;51.40
65462;DHT22;53236;43.666;18.444;2023-07-29T09:59:57;30.20;50.80
65462;DHT22;53236;43.666;18.444;2023-07-29T10:02:23;30.70;52.10
65462;DHT22;53236;43.666;18.444;2023-07-29T10:04:52;30.90;52.30
65462;DHT22;53236;43.666;18.444;2023-07-29T10:07:18;31.20;49.20
65462;DHT22;53236;43.666;18.444;2023-07-29T10:09:45;30.90;49.80
65462;DHT22;53236;43.666;18.444;2023-07-29T10:12:13;30.80;52.50
65462;DHT22;53236;43.666;18.444;2023-07-29T10:14:39;31.00;51.70
65462;DHT22;53236;43.666;18.444;2023-07-29T10:17:06;31.10;51.10
65462;DHT22;53236;43.666;18.444;2023-07-29T10:19:31;30.60;52.90
65462;DHT22;53236;43.666;18.444;2023-07-29T10:21:59;30.10;52.00
65462;DHT22;53236;43.666;18.444;2023-07-29T10:24:30;29.10;52.80
65462;DHT22;53236;43.666;18.444;2023-07-29T10:26:59;28.90;52.20
65462;DHT22;53236;43.666;18.444;2023-07-29T10:29:32;28.90;53.10
65462;DHT22;53236;43.666;18.444;2023-07-29T10:32:02;28.70;55.70
65462;DHT22;53236;43.666;18.444;2023-07-29T10:34:31;28.80;53.50
65462;DHT22;53236;43.666;18.444;2023-07-29T10:36:57;28.40;53.00
65462;DHT22;53236;43.666;18.444;2023-07-29T10:39:25;27.60;55.30
65462;DHT22;53236;43.666;18.444;2023-07-29T10:42:01;27.90;55.90
65462;DHT22;53236;43.666;18.444;2023-07-29T10:47:15;28.10;54.00
65462;DHT22;53236;43.666;18.444;2023-07-29T10:49:42;28.10;54.30
65462;DHT22;53236;43.666;18.444;2023-07-29T10:52:08;28.00;54.50
65462;DHT22;53236;43.666;18.444;2023-07-29T10:54:43;27.70;56.40
65462;DHT22;53236;43.666;18.444;2023-07-29T10:57:30;27.90;56.40
65462;DHT22;53236;43.666;18.444;2023-07-29T10:59:56;28.00;55.30
65462;DHT22;53236;43.666;18.444;2023-07-29T11:02:32;27.70;58.00
65462;DHT22;53236;43.666;18.444;2023-07-29T11:04:58;28.00;58.40
65462;DHT22;53236;43.666;18.444;2023-07-29T11:07:28;28.10;58.50
65462;DHT22;53236;43.666;18.444;2023-07-29T11:09:56;28.10;57.60
65462;DHT22;53236;43.666;18.444;2023-07-29T11:17:47;28.20;55.10
65462;DHT22;53236;43.666;18.444;2023-07-29T11:20:14;27.80;56.10
65462;DHT22;53236;43.666;18.444;2023-07-29T11:22:40;27.80;58.40
65462;DHT22;53236;43.666;18.444;2023-07-29T11:25:12;27.90;57.10
65462;DHT22;53236;43.666;18.444;2023-07-29T11:27:38;27.80;56.50
65462;DHT22;53236;43.666;18.444;2023-07-29T11:30:08;27.80;57.80
65462;DHT22;53236;43.666;18.444;2023-07-29T11:32:35;27.80;56.20
65462;DHT22;53236;43.666;18.444;2023-07-29T11:35:05;27.60;56.10
65462;DHT22;53236;43.666;18.444;2023-07-29T11:37:33;27.60;55.90
65462;DHT22;53236;43.666;18.444;2023-07-29T11:39:59;27.80;57.70
65462;DHT22;53236;43.666;18.444;2023-07-29T11:42:26;27.50;57.10
65462;DHT22;53236;43.666;18.444;2023-07-29T11:44:52;27.80;58.70
65462;DHT22;53236;43.666;18.444;2023-07-29T11:47:18;27.90;56.00
65462;DHT22;53236;43.666;18.444;2023-07-29T11:49:43;27.80;57.30
65462;DHT22;53236;43.666;18.444;2023-07-29T11:52:10;27.90;57.00
65462;DHT22;53236;43.666;18.444;2023-07-29T11:54:39;28.00;54.70
65462;DHT22;53236;43.666;18.444;2023-07-29T11:57:11;28.30;58.80
65462;DHT22;53236;43.666;18.444;2023-07-29T11:59:38;28.70;57.70
65462;DHT22;53236;43.666;18.444;2023-07-29T12:02:16;28.70;54.60
65462;DHT22;53236;43.666;18.444;2023-07-29T12:04:43;28.80;56.20
65462;DHT22;53236;43.666;18.444;2023-07-29T12:07:10;28.60;55.90
65462;DHT22;53236;43.666;18.444;2023-07-29T12:09:36;28.20;55.40
65462;DHT22;53236;43.666;18.444;2023-07-29T12:12:06;28.20;55.70
65462;DHT22;53236;43.666;18.444;2023-07-29T12:14:33;28.20;55.40
65462;DHT22;53236;43.666;18.444;2023-07-29T12:17:03;28.20;56.80
65462;DHT22;53236;43.666;18.444;2023-07-29T12:19:37;28.30;55.90
65462;DHT22;53236;43.666;18.444;2023-07-29T12:22:04;28.30;54.70
65462;DHT22;53236;43.666;18.444;2023-07-29T12:24:31;28.20;56.40
65462;DHT22;53236;43.666;18.444;2023-07-29T12:26:58;28.20;56.20
65462;DHT22;53236;43.666;18.444;2023-07-29T12:29:24;28.40;57.70
65462;DHT22;53236;43.666;18.444;2023-07-29T12:32:00;28.70;56.50
65462;DHT22;53236;43.666;18.444;2023-07-29T12:34:28;28.40;55.70
65462;DHT22;53236;43.666;18.444;2023-07-29T12:36:55;28.20;55.00
65462;DHT22;53236;43.666;18.444;2023-07-29T12:41:49;28.50;57.70
65462;DHT22;53236;43.666;18.444;2023-07-29T12:44:15;28.70;54.60
65462;DHT22;53236;43.666;18.444;2023-07-29T12:46:41;28.60;53.80
65462;DHT22;53236;43.666;18.444;2023-07-29T12:49:07;28.70;56.30
65462;DHT22;53236;43.666;18.444;2023-07-29T12:51:33;28.90;56.60
65462;DHT22;53236;43.666;18.444;2023-07-29T12:53:59;29.00;55.50
65462;DHT22;53236;43.666;18.444;2023-07-29T12:56:24;29.00;55.20
65462;DHT22;53236;43.666;18.444;2023-07-29T12:58:50;29.00;55.40
65462;DHT22;53236;43.666;18.444;2023-07-29T13:01:16;28.60;55.40
65462;DHT22;53236;43.666;18.444;2023-07-29T13:03:45;28.60;56.00
65462;DHT22;53236;43.666;18.444;2023-07-29T13:06:11;28.60;55.70
65462;DHT22;53236;43.666;18.444;2023-07-29T13:08:37;28.60;56.00
65462;DHT22;53236;43.666;18.444;2023-07-29T13:11:04;28.70;56.50
65462;DHT22;53236;43.666;18.444;2023-07-29T13:13:30;28.90;55.70
65462;DHT22;53236;43.666;18.444;2023-07-29T13:15:57;28.60;54.10
65462;DHT22;53236;43.666;18.444;2023-07-29T13:18:22;28.70;55.60
65462;DHT22;53236;43.666;18.444;2023-07-29T13:20:48;28.80;54.70
65462;DHT22;53236;43.666;18.444;2023-07-29T13:23:15;28.90;53.70
65462;DHT22;53236;43.666;18.444;2023-07-29T13:25:41;28.90;55.40
65462;DHT22;53236;43.666;18.444;2023-07-29T13:28:07;29.00;56.10
65462;DHT22;53236;43.666;18.444;2023-07-29T13:30:33;29.00;55.40
65462;DHT22;53236;43.666;18.444;2023-07-29T13:32:58;28.80;54.60
65462;DHT22;53236;43.666;18.444;2023-07-29T13:35:24;28.70;55.00
65462;DHT22;53236;43.666;18.444;2023-07-29T13:37:50;28.60;54.90
65462;DHT22;53236;43.666;18.444;2023-07-29T13:40:16;28.30;56.10
65462;DHT22;53236;43.666;18.444;2023-07-29T13:42:42;28.30;56.30
65462;DHT22;53236;43.666;18.444;2023-07-29T13:45:08;28.40;55.50
65462;DHT22;53236;43.666;18.444;2023-07-29T13:47:34;28.40;56.60
65462;DHT22;53236;43.666;18.444;2023-07-29T13:50:00;28.40;56.40
65462;DHT22;53236;43.666;18.444;2023-07-29T13:52:26;28.40;56.60
65462;DHT22;53236;43.666;18.444;2023-07-29T13:54:52;28.50;56.60
65462;DHT22;53236;43.666;18.444;2023-07-29T13:57:17;28.50;55.10
65462;DHT22;53236;43.666;18.444;2023-07-29T13:59:43;28.40;56.00
65462;DHT22;53236;43.666;18.444;2023-07-29T14:02:09;28.40;55.50
65462;DHT22;53236;43.666;18.444;2023-07-29T14:04:35;28.40;55.70
65462;DHT22;53236;43.666;18.444;2023-07-29T14:07:00;28.50;56.30
65462;DHT22;53236;43.666;18.444;2023-07-29T14:09:26;28.40;54.70
65462;DHT22;53236;43.666;18.444;2023-07-29T14:11:54;28.40;55.30
65462;DHT22;53236;43.666;18.444;2023-07-29T14:14:20;28.40;54.30
65462;DHT22;53236;43.666;18.444;2023-07-29T14:16:46;28.40;54.70
65462;DHT22;53236;43.666;18.444;2023-07-29T14:19:12;28.30;54.60
65462;DHT22;53236;43.666;18.444;2023-07-29T14:21:38;28.20;57.30
65462;DHT22;53236;43.666;18.444;2023-07-29T14:24:05;28.20;56.70
65462;DHT22;53236;43.666;18.444;2023-07-29T14:26:31;28.20;56.00
65462;DHT22;53236;43.666;18.444;2023-07-29T14:28:57;28.20;54.90
65462;DHT22;53236;43.666;18.444;2023-07-29T14:31:22;28.30;54.90
65462;DHT22;53236;43.666;18.444;2023-07-29T14:33:48;28.20;54.60
65462;DHT22;53236;43.666;18.444;2023-07-29T14:36:17;28.00;55.80
65462;DHT22;53236;43.666;18.444;2023-07-29T14:38:42;28.00;56.20
65462;DHT22;53236;43.666;18.444;2023-07-29T14:41:08;28.00;55.80
65462;DHT22;53236;43.666;18.444;2023-07-29T14:43:35;28.00;55.80
65462;DHT22;53236;43.666;18.444;2023-07-29T14:46:01;27.90;56.40
65462;DHT22;53236;43.666;18.444;2023-07-29T14:48:27;27.90;55.80
65462;DHT22;53236;43.666;18.444;2023-07-29T14:50:53;28.00;59.90
65462;DHT22;53236;43.666;18.444;2023-07-29T14:53:19;28.00;59.30
65462;DHT22;53236;43.666;18.444;2023-07-29T14:55:45;28.30;57.40
65462;DHT22;53236;43.666;18.444;2023-07-29T14:58:11;28.40;57.10
65462;DHT22;53236;43.666;18.444;2023-07-29T15:00:36;28.50;57.30
65462;DHT22;53236;43.666;18.444;2023-07-29T15:03:03;28.40;57.70
65462;DHT22;53236;43.666;18.444;2023-07-29T15:05:29;28.40;57.40
65462;DHT22;53236;43.666;18.444;2023-07-29T15:07:55;28.20;59.30
65462;DHT22;53236;43.666;18.444;2023-07-29T15:10:21;27.90;62.20
65462;DHT22;53236;43.666;18.444;2023-07-29T15:12:47;27.70;63.20
65462;DHT22;53236;43.666;18.444;2023-07-29T15:15:13;27.60;63.40
65462;DHT22;53236;43.666;18.444;2023-07-29T15:17:38;27.60;64.60
65462;DHT22;53236;43.666;18.444;2023-07-29T15:20:05;27.50;65.20
65462;DHT22;53236;43.666;18.444;2023-07-29T15:22:31;27.60;65.10
65462;DHT22;53236;43.666;18.444;2023-07-29T15:24:57;27.60;65.30
65462;DHT22;53236;43.666;18.444;2023-07-29T15:27:26;27.30;66.60
65462;DHT22;53236;43.666;18.444;2023-07-29T15:29:52;27.40;67.10
65462;DHT22;53236;43.666;18.444;2023-07-29T15:32:17;27.70;66.90